Time;durP1;ratioP1;P1;durP2;ratioP2;P2;SDS_P1;SDS_P2;PMS_P1;PMS_P2;Temp;Humidity;BMP_temperature;BMP_pressure;BME280_temperature;BME280_humidity;BME280_pressure;Samples;Min_cycle;Max_cycle;Signal;HPM_P1;HPM_P2
2021/09/14 00:02:17;;;;;;;10.97;2.80;;;;;;;13.28;96.68;101567.41;5048578;28;20504;-67
2021/09/14 00:04:42;;;;;;;10.57;2.53;;;;;;;13.21;96.21;101571.72;5030746;28;20517;-67
2021/09/14 00:07:08;;;;;;;7.37;2.53;;;;;;;13.13;96.60;101559.06;5048504;28;20037;-67
2021/09/14 00:09:33;;;;;;;11.98;3.42;;;;;;;13.18;96.59;101561.28;5030444;28;20485;-67
2021/09/14 00:11:59;;;;;;;5.80;2.40;;;;;;;13.22;96.25;101562.66;5048486;28;20362;-67
2021/09/14 00:14:24;;;;;;;11.47;3.67;;;;;;;13.22;95.85;101562.66;5048046;28;20033;-67
2021/09/14 00:16:50;;;;;;;7.57;2.80;;;;;;;13.20;95.98;101559.28;5048116;28;20763;-67
2021/09/14 00:19:16;;;;;;;6.70;2.80;;;;;;;13.15;96.30;101564.28;5047898;28;20427;-67
2021/09/14 00:21:42;;;;;;;7.40;2.63;;;;;;;13.14;96.83;101558.09;5048192;28;20032;-67
2021/09/14 00:24:08;;;;;;;5.82;2.35;;;;;;;13.17;96.82;101555.09;5030333;28;20617;-67
2021/09/14 00:26:33;;;;;;;8.53;3.23;;;;;;;13.13;96.55;101559.06;5048066;28;20041;-67
2021/09/14 00:28:59;;;;;;;8.37;2.40;;;;;;;13.13;96.68;101553.72;5030135;28;20098;-67
2021/09/14 00:31:25;;;;;;;10.02;2.80;;;;;;;12.99;97.22;101547.09;5030238;28;20033;-67
2021/09/14 00:33:51;;;;;;;5.30;2.40;;;;;;;12.97;97.71;101549.13;5030205;28;20033;-67
2021/09/14 00:36:17;;;;;;;13.17;3.03;;;;;;;13.06;97.23;101555.34;5030443;28;20035;-67
2021/09/14 00:38:42;;;;;;;7.43;3.33;;;;;;;13.03;97.20;101551.16;5013392;28;20037;-67
2021/09/14 00:41:08;;;;;;;8.87;2.93;;;;;;;13.02;97.01;101543.28;5030475;28;20094;-67
2021/09/14 00:43:34;;;;;;;6.10;2.92;;;;;;;13.02;96.79;101535.25;5030379;28;20024;-67
2021/09/14 00:45:59;;;;;;;8.13;2.20;;;;;;;13.07;96.18;101538.28;5029598;28;20456;-67
2021/09/14 00:48:24;;;;;;;5.97;3.30;;;;;;;13.06;96.24;101548.19;5013406;28;20025;-67
2021/09/14 00:50:50;;;;;;;7.93;2.80;;;;;;;12.94;96.82;101530.66;5047441;28;20040;-67
2021/09/14 00:53:16;;;;;;;6.22;2.55;;;;;;;12.98;96.63;101542.75;5030161;28;20048;-67
2021/09/14 00:55:42;;;;;;;8.98;2.65;;;;;;;12.97;97.18;101543.75;5013181;28;20341;-67
2021/09/14 00:58:07;;;;;;;9.88;2.97;;;;;;;12.96;97.04;101535.88;5030230;28;20021;-67
2021/09/14 01:00:33;;;;;;;7.20;2.83;;;;;;;12.96;97.08;101536.72;5029361;28;20064;-67
2021/09/14 01:02:59;;;;;;;12.38;3.05;;;;;;;12.96;97.52;101538.56;5047630;28;20033;-67
2021/09/14 01:05:25;;;;;;;9.20;2.88;;;;;;;12.87;97.28;101543.00;5029607;28;20029;-67
2021/09/14 01:07:52;;;;;;;12.40;2.97;;;;;;;12.84;97.87;101546.03;5030332;28;20043;-67
2021/09/14 01:10:18;;;;;;;7.18;3.28;;;;;;;12.84;98.26;101541.50;5013930;28;20083;-67
2021/09/14 01:12:44;;;;;;;6.75;3.53;;;;;;;12.91;99.11;101546.22;5030801;28;20147;-67
2021/09/14 01:15:10;;;;;;;8.73;2.85;;;;;;;12.95;99.04;101551.13;5030712;28;20041;-67
2021/09/14 01:17:36;;;;;;;5.18;2.42;;;;;;;12.95;98.02;101553.81;5030668;28;20032;-67
2021/09/14 01:20:03;;;;;;;13.63;2.87;;;;;;;12.94;97.09;101538.69;5014150;28;20488;-67
2021/09/14 01:22:30;;;;;;;13.98;3.08;;;;;;;12.89;97.00;101541.03;5030677;28;20098;-67
2021/09/14 01:24:57;;;;;;;6.95;2.60;;;;;;;12.81;97.34;101533.78;5030527;28;20029;-67
2021/09/14 01:27:23;;;;;;;;;;;;;;;12.83;96.96;101541.66;5030927;28;20028;-67
2021/09/14 01:32:33;;;;;;;9.88;3.00;;;;;;;12.87;96.00;101538.50;5030466;28;20040;-67
2021/09/14 01:35:17;;;;;;;10.70;4.77;;;;;;;12.85;96.05;101550.38;5030475;28;20570;-67
2021/09/14 01:37:47;;;;;;;21.55;3.90;;;;;;;12.79;96.12;101551.84;5030419;28;20280;-67
2021/09/14 01:40:14;;;;;;;9.35;2.92;;;;;;;12.82;96.53;101551.53;5030411;28;20048;-67
2021/09/14 01:42:40;;;;;;;8.13;3.45;;;;;;;12.81;96.25;101549.84;5030363;28;20083;-67
2021/09/14 01:45:09;;;;;;;14.40;3.85;;;;;;;12.76;96.17;101545.94;5014317;28;20139;-67
2021/09/14 01:47:36;;;;;;;9.52;2.83;;;;;;;12.76;96.31;101549.50;5030240;28;20454;-67
2021/09/14 01:50:03;;;;;;;7.57;2.97;;;;;;;12.79;96.25;101559.88;5013766;28;20033;-67
2021/09/14 01:52:31;;;;;;;10.68;2.80;;;;;;;12.78;95.78;101552.88;5033805;28;20035;-67
2021/09/14 01:54:56;;;;;;;15.90;3.92;;;;;;;12.78;95.84;101554.69;5033419;28;20075;-67
2021/09/14 01:57:26;;;;;;;10.30;3.87;;;;;;;12.75;96.10;101549.63;5051764;28;20557;-66
2021/09/14 01:59:54;;;;;;;6.03;2.63;;;;;;;12.73;95.98;101559.66;5034214;28;20043;-67
2021/09/14 02:02:37;;;;;;;5.32;2.50;;;;;;;12.67;95.83;101551.28;5034240;28;20079;-67
2021/09/14 02:05:11;;;;;;;6.45;2.97;;;;;;;12.70;96.93;101551.97;5034196;28;20020;-67
2021/09/14 02:43:21;;;;;;;12.52;3.92;;;;;;;12.36;98.63;101532.13;5051026;28;20037;-67
2021/09/14 02:59:31;;;;;;;12.80;3.60;;;;;;;12.47;98.01;101533.69;4992976;28;20059;-67
2021/09/14 03:01:58;;;;;;;8.05;2.80;;;;;;;12.38;97.79;101529.28;5016980;28;20024;-67
2021/09/14 03:04:24;;;;;;;6.77;2.80;;;;;;;12.30;98.09;101534.56;5033135;28;20037;-67
2021/09/14 03:06:49;;;;;;;8.55;2.80;;;;;;;12.37;98.01;101524.94;5016610;28;20032;-67
2021/09/14 03:09:30;;;;;;;12.27;3.67;;;;;;;12.42;97.68;101525.28;5032762;28;20036;-67
2021/09/14 03:11:55;;;;;;;10.67;3.77;;;;;;;12.43;97.50;101521.59;5033144;28;20064;-67
2021/09/14 03:14:21;;;;;;;9.05;3.05;;;;;;;12.50;97.64;101528.03;5016398;28;20044;-66
2021/09/14 03:16:47;;;;;;;8.05;2.75;;;;;;;12.44;97.53;101525.97;5032911;28;20131;-67
2021/09/14 03:19:12;;;;;;;8.50;3.50;;;;;;;12.40;97.29;101522.75;5032956;28;20135;-67
2021/09/14 03:21:38;;;;;;;5.87;2.77;;;;;;;12.39;97.48;101522.94;5032888;28;20024;-67
2021/09/14 03:24:07;;;;;;;7.68;3.25;;;;;;;12.44;97.11;101528.66;5032917;28;20029;-67
2021/09/14 03:26:33;;;;;;;12.00;3.78;;;;;;;12.40;96.88;101524.59;5032958;28;20040;-67
2021/09/14 03:28:58;;;;;;;13.13;4.27;;;;;;;12.31;97.02;101514.81;5032812;28;20078;-66
2021/09/14 03:31:23;;;;;;;5.80;3.30;;;;;;;12.34;97.47;101522.53;5032537;28;20041;-67
2021/09/14 03:33:51;;;;;;;9.20;3.70;;;;;;;12.35;97.64;101522.41;5032946;28;20118;-66
2021/09/14 03:36:17;;;;;;;11.90;3.70;;;;;;;12.35;97.63;101518.88;5032495;28;20545;-67
2021/09/14 03:38:45;;;;;;;10.25;4.35;;;;;;;12.30;97.26;101513.16;5032526;28;20036;-67
2021/09/14 03:41:10;;;;;;;13.32;4.10;;;;;;;12.30;97.33;101518.50;5032505;28;20028;-67
2021/09/14 03:43:36;;;;;;;10.03;3.50;;;;;;;12.26;97.65;101517.97;5050367;28;20048;-67
2021/09/14 03:46:01;;;;;;;11.55;4.22;;;;;;;12.24;97.71;101519.94;5031985;28;20412;-67
2021/09/14 03:48:29;;;;;;;7.40;3.58;;;;;;;12.24;97.77;101519.94;5032181;28;20033;-67
2021/09/14 03:50:55;;;;;;;11.60;3.70;;;;;;;12.27;97.65;101521.47;5016076;28;20025;-67
2021/09/14 03:53:21;;;;;;;12.67;3.63;;;;;;;12.27;97.36;101518.81;5032613;28;20037;-67
2021/09/14 03:55:48;;;;;;;9.07;3.28;;;;;;;12.24;97.43;101515.47;5032214;28;20037;-67
2021/09/14 03:58:15;;;;;;;10.17;3.50;;;;;;;12.25;97.77;101522.50;5032311;28;20021;-67
2021/09/14 04:00:41;;;;;;;9.57;4.88;;;;;;;12.25;97.64;101521.66;5032144;28;20040;-67
2021/09/14 04:03:24;;;;;;;5.55;3.45;;;;;;;12.25;98.23;101532.38;5017398;28;20543;-67
2021/09/14 04:10:50;;;;;;;10.95;3.80;;;;;;;12.17;98.48;101527.75;5032139;28;20075;-67
2021/09/14 04:13:17;;;;;;;10.75;3.72;;;;;;;12.19;98.67;101528.44;5015155;28;20082;-67
2021/09/14 04:15:43;;;;;;;10.85;4.32;;;;;;;12.20;98.74;101524.78;5031907;28;20041;-67
2021/09/14 04:18:10;;;;;;;8.27;3.63;;;;;;;12.18;99.20;101526.78;5031840;28;20047;-67
2021/09/14 04:20:36;;;;;;;9.20;3.85;;;;;;;12.19;99.13;101531.13;5049409;28;20401;-67
2021/09/14 04:23:01;;;;;;;7.32;3.35;;;;;;;12.17;99.07;101530.44;5031818;28;20044;-67
2021/09/14 04:25:27;;;;;;;9.33;4.83;;;;;;;12.18;98.69;101526.78;5031819;28;20720;-67
2021/09/14 04:27:52;;;;;;;8.80;4.00;;;;;;;12.12;99.21;101521.19;5031677;28;20043;-67
2021/09/14 04:30:17;;;;;;;9.30;4.70;;;;;;;12.13;98.98;101537.13;5015239;28;20064;-67
2021/09/14 04:32:45;;;;;;;11.68;4.10;;;;;;;12.12;98.79;101527.38;5015251;28;20041;-67
2021/09/14 04:35:11;;;;;;;9.32;4.43;;;;;;;12.12;99.21;101521.19;5015374;28;20093;-67
2021/09/14 04:37:37;;;;;;;13.90;3.70;;;;;;;12.15;99.10;101531.59;5031623;28;20632;-67
2021/09/14 04:40:04;;;;;;;18.08;4.70;;;;;;;12.12;99.24;101531.91;5031178;28;20040;-67
2021/09/14 04:42:29;;;;;;;9.10;4.43;;;;;;;12.10;99.86;101529.38;5031705;28;20017;-67
2021/09/14 04:44:54;;;;;;;7.83;3.47;;;;;;;12.08;99.37;101528.72;5048733;28;20029;-67
2021/09/14 04:47:20;;;;;;;12.13;4.20;;;;;;;12.09;99.73;101537.56;5031482;28;20462;-67
2021/09/14 04:49:45;;;;;;;15.73;3.65;;;;;;;12.08;99.92;101536.75;5031055;28;20112;-67
2021/09/14 04:52:11;;;;;;;16.63;4.73;;;;;;;12.06;100.00;101543.22;5031378;28;20127;-67
2021/09/14 04:54:37;;;;;;;9.82;4.00;;;;;;;11.99;100.00;101545.69;5031094;28;20025;-67
2021/09/14 04:57:04;;;;;;;13.07;4.70;;;;;;;11.90;99.71;101543.91;5031313;28;20036;-67
2021/09/14 04:59:30;;;;;;;13.00;4.57;;;;;;;11.93;100.00;101546.28;5030771;28;20449;-67
2021/09/14 05:01:56;;;;;;;9.85;4.45;;;;;;;11.88;99.93;101540.53;5031384;28;20128;-67
2021/09/14 05:04:22;;;;;;;10.85;3.55;;;;;;;11.91;100.00;101545.59;5030463;28;20048;-67
2021/09/14 05:06:48;;;;;;;10.80;4.30;;;;;;;11.92;99.81;101542.75;5030917;28;20438;-67
2021/09/14 05:09:13;;;;;;;7.18;3.45;;;;;;;11.96;99.50;101546.81;5030689;28;20040;-67
2021/09/14 05:11:44;;;;;;;10.60;4.55;;;;;;;12.00;99.67;101536.66;5015380;28;20035;-67
2021/09/14 05:14:11;;;;;;;7.82;3.60;;;;;;;12.03;100.00;101544.34;5037694;28;20040;-67
2021/09/14 05:16:49;;;;;;;15.05;4.18;;;;;;;12.07;100.00;101534.19;5030960;28;20033;-67
2021/09/14 05:19:44;;;;;;;17.92;9.35;;;;;;;12.05;100.00;101537.03;5034606;28;20048;-67
2021/09/14 05:22:12;;;;;;;11.27;5.15;;;;;;;12.07;100.00;101535.03;5048459;28;20049;-67
2021/09/14 05:24:37;;;;;;;11.02;4.22;;;;;;;12.11;100.00;101535.59;5030940;28;20036;-67
2021/09/14 05:27:03;;;;;;;12.30;5.00;;;;;;;12.15;99.91;101526.22;5013478;28;20405;-68
2021/09/14 05:29:28;;;;;;;13.75;4.53;;;;;;;12.21;99.55;101525.63;5047055;28;20594;-68
2021/09/14 05:31:56;;;;;;;10.95;4.30;;;;;;;12.19;98.56;101520.41;5029112;28;20040;-67
2021/09/14 05:34:23;;;;;;;18.08;4.05;;;;;;;12.25;98.36;101519.81;5029633;28;20343;-67
2021/09/14 05:36:49;;;;;;;;;;;;;;;12.31;98.27;101523.69;5047450;28;20029;-67
2021/09/14 05:39:14;;;;;;;;;;;;;;;12.23;98.30;101519.13;5029954;28;20358;-67
2021/09/14 05:41:40;;;;;;;10.43;4.00;;;;;;;12.28;99.05;101517.81;5013122;28;20038;-68
2021/09/14 05:44:09;;;;;;;10.07;3.67;;;;;;;12.23;98.71;101521.78;5013319;28;20103;-67
2021/09/14 05:46:35;;;;;;;7.78;3.92;;;;;;;12.21;98.82;101520.28;5012862;28;20020;-68
2021/09/14 05:49:00;;;;;;;8.82;3.60;;;;;;;12.25;98.79;101525.16;5028960;28;20116;-67
2021/09/14 05:51:26;;;;;;;8.70;4.00;;;;;;;12.29;98.54;101514.13;5012121;28;20147;-67
2021/09/14 05:53:58;;;;;;;9.30;4.70;;;;;;;12.22;99.10;101522.81;5028721;28;20082;-67
2021/09/14 05:56:30;;;;;;;13.02;4.45;;;;;;;12.24;99.75;101523.50;5028006;28;20462;-67
2021/09/14 05:59:00;;;;;;;12.23;4.85;;;;;;;12.32;99.22;101525.41;5028401;28;20048;-68
2021/09/14 06:01:27;;;;;;;15.55;4.95;;;;;;;12.34;98.94;101517.19;5009095;28;20040;-67
2021/09/14 06:03:53;;;;;;;13.65;4.05;;;;;;;12.40;98.79;101516.56;5009777;28;20029;-67
2021/09/14 06:06:19;;;;;;;9.25;3.40;;;;;;;12.66;97.62;101519.28;5009538;28;20037;-67
2021/09/14 06:08:45;;;;;;;8.57;4.53;;;;;;;13.59;96.88;101518.56;5025330;28;20421;-67
2021/09/14 06:11:10;;;;;;;9.10;3.60;;;;;;;14.14;89.99;101518.84;5025515;28;20033;-67
2021/09/14 06:13:36;;;;;;;8.60;3.78;;;;;;;14.26;86.65;101516.66;5029310;28;20061;-67
2021/09/14 06:16:03;;;;;;;14.18;3.97;;;;;;;14.24;87.51;101510.63;5029167;28;20045;-67
2021/09/14 06:18:29;;;;;;;8.05;3.50;;;;;;;14.37;88.34;101520.84;5028942;28;20033;-67
2021/09/14 06:20:55;;;;;;;7.37;2.77;;;;;;;15.58;83.10;101512.63;5029339;28;20118;-67
2021/09/14 06:23:20;;;;;;;4.10;2.25;;;;;;;16.60;79.48;101509.69;5046142;28;20180;-68
2021/09/14 06:25:48;;;;;;;5.10;2.47;;;;;;;17.31;75.81;101506.56;5027660;28;20041;-67
2021/09/14 06:28:14;;;;;;;5.47;2.70;;;;;;;17.70;74.17;101506.19;5043604;28;20025;-68
2021/09/14 06:30:39;;;;;;;5.53;2.40;;;;;;;18.23;71.59;101510.47;5044000;28;20136;-68
2021/09/14 06:33:05;;;;;;;8.48;2.78;;;;;;;18.41;70.02;101505.44;5026306;28;20094;-68
2021/09/14 06:35:35;;;;;;;6.40;2.60;;;;;;;17.37;71.62;101508.50;5010253;28;20112;-68
2021/09/14 06:38:06;;;;;;;8.57;2.60;;;;;;;16.61;74.19;101516.75;5013088;28;20126;-68
2021/09/14 06:40:32;;;;;;;6.73;2.60;;;;;;;16.27;76.13;101519.06;5029437;28;20025;-68
2021/09/14 06:42:58;;;;;;;9.57;2.78;;;;;;;15.97;76.26;101514.44;5014402;28;20060;-68
2021/09/14 06:45:40;;;;;;;4.63;2.10;;;;;;;16.19;76.42;101517.28;5017087;28;20021;-68
2021/09/14 06:48:16;;;;;;;4.97;2.17;;;;;;;16.42;75.28;101506.50;5031350;28;20041;-68
2021/09/14 06:50:41;;;;;;;9.90;2.83;;;;;;;16.40;76.20;101513.91;4996309;28;1040354;-68
2021/09/14 06:53:06;;;;;;;8.97;3.37;;;;;;;16.14;77.68;101511.63;5049979;28;20552;-68
2021/09/14 06:55:32;;;;;;;8.73;2.97;;;;;;;16.50;76.97;101508.25;5032204;28;20492;-68
2021/09/14 06:57:57;;;;;;;8.17;2.60;;;;;;;16.19;76.44;101518.13;5032474;28;20029;-68
2021/09/14 07:00:23;;;;;;;12.10;3.40;;;;;;;15.72;78.41;101521.00;5015476;28;20527;-68
2021/09/14 07:02:48;;;;;;;6.73;2.87;;;;;;;15.85;77.24;101512.31;5015795;28;20025;-68
2021/09/14 07:05:13;;;;;;;5.60;3.13;;;;;;;15.50;79.13;101520.75;5049482;28;20362;-68
2021/09/14 07:07:39;;;;;;;7.87;2.87;;;;;;;15.35;79.18;101519.81;5049719;28;20386;-68
2021/09/14 07:10:05;;;;;;;6.83;3.20;;;;;;;15.50;79.53;101523.44;5031557;28;20138;-67
2021/09/14 07:12:31;;;;;;;;;;;;;;;15.55;78.92;101520.22;5050138;28;20031;-68
2021/09/14 07:14:56;;;;;;;;;;;;;;;15.83;78.96;101528.69;5032092;28;20330;-68
2021/09/14 07:17:22;;;;;;;;;;;;;;;15.75;78.29;101528.72;5049850;28;20207;-68
2021/09/14 07:19:47;;;;;;;9.80;4.30;;;;;;;15.63;77.96;101521.00;5049327;28;20246;-68
2021/09/14 07:22:12;;;;;;;5.67;2.50;;;;;;;15.82;78.25;101521.59;5049413;28;20040;-68
2021/09/14 07:24:37;;;;;;;5.20;2.43;;;;;;;15.13;80.25;101521.41;5031690;28;20051;-68
2021/09/14 07:27:03;;;;;;;11.93;2.83;;;;;;;14.97;81.91;101517.75;5049533;28;20135;-68
2021/09/14 07:29:31;;;;;;;8.00;3.73;;;;;;;15.11;82.16;101524.28;5031574;28;20142;-68
2021/09/14 07:31:57;;;;;;;10.57;3.00;;;;;;;15.29;80.59;101520.50;5031694;28;20539;-68
2021/09/14 07:34:22;;;;;;;9.00;3.00;;;;;;;15.16;81.00;101521.88;5049393;28;20037;-68
2021/09/14 07:36:47;;;;;;;8.13;2.50;;;;;;;15.25;80.56;101511.13;5050000;28;20037;-68
2021/09/14 07:39:12;;;;;;;10.17;3.77;;;;;;;15.20;80.70;101519.72;5032110;28;20106;-68
2021/09/14 07:41:38;;;;;;;7.77;2.57;;;;;;;15.35;79.62;101519.81;5048999;28;20064;-68
2021/09/14 07:44:03;;;;;;;11.13;2.77;;;;;;;15.07;81.02;101516.72;5049590;28;20071;-68
2021/09/14 07:46:29;;;;;;;11.47;3.00;;;;;;;15.10;80.66;101517.22;5031986;28;20037;-68
2021/09/14 07:48:54;;;;;;;7.60;2.80;;;;;;;15.23;80.70;101516.66;5014693;28;20035;-68
2021/09/14 07:51:20;;;;;;;9.23;2.80;;;;;;;14.64;81.51;101525.06;5032023;28;20473;-68
2021/09/14 07:53:45;;;;;;;9.50;3.30;;;;;;;14.78;81.68;101520.84;5015846;28;20041;-68
2021/09/14 07:56:11;;;;;;;7.15;2.47;;;;;;;15.22;80.56;101514.13;5049117;28;20047;-68
2021/09/14 07:58:36;;;;;;;4.17;2.50;;;;;;;15.29;79.97;101507.91;5048930;28;20382;-68
2021/09/14 08:01:02;;;;;;;7.40;2.23;;;;;;;15.63;79.54;101502.16;5030874;28;20033;-68
2021/09/14 08:03:27;;;;;;;8.93;2.37;;;;;;;15.99;79.30;101504.31;5031159;28;20721;-68
2021/09/14 08:05:53;;;;;;;8.63;2.20;;;;;;;16.75;75.02;101508.88;5048437;28;20178;-68
2021/09/14 08:08:18;;;;;;;9.43;2.83;;;;;;;17.26;74.03;101514.38;5048084;28;20053;-68
2021/09/14 08:10:43;;;;;;;5.63;1.93;;;;;;;18.03;69.23;101511.13;5047767;28;20025;-68
2021/09/14 08:13:09;;;;;;;7.47;2.47;;;;;;;17.79;69.32;101508.75;5048102;28;20473;-69
2021/09/14 08:15:34;;;;;;;7.37;1.80;;;;;;;17.33;71.46;101518.00;5047536;28;20028;-68
2021/09/14 08:18:00;;;;;;;5.83;1.77;;;;;;;17.69;70.97;101509.91;5048038;28;20028;-69
2021/09/14 08:20:26;;;;;;;4.30;1.60;;;;;;;17.80;70.85;101511.28;5047937;28;20122;-68
2021/09/14 08:22:52;;;;;;;;;;;;;;;17.84;71.51;101504.50;5014678;28;20033;-69
2021/09/14 08:25:17;;;;;;;7.78;2.35;;;;;;;17.68;70.06;101496.63;5048167;28;19913;-69
2021/09/14 08:27:43;;;;;;;7.77;2.87;;;;;;;17.88;70.54;101507.63;5047957;28;20099;-69
2021/09/14 08:30:11;;;;;;;5.05;1.30;;;;;;;19.06;68.45;101498.00;5030418;28;20035;-68
2021/09/14 08:32:36;;;;;;;5.00;2.13;;;;;;;20.05;64.82;101493.94;5030419;28;20021;-69
2021/09/14 08:35:02;;;;;;;5.10;1.43;;;;;;;21.29;61.38;101489.59;5030755;28;20094;-69
2021/09/14 08:37:27;;;;;;;9.93;1.65;;;;;;;21.76;59.09;101500.25;5030496;28;20358;-69
2021/09/14 08:39:53;;;;;;;4.47;1.97;;;;;;;21.46;59.73;101501.66;5047985;28;20037;-69
2021/09/14 08:42:21;;;;;;;5.37;2.03;;;;;;;21.01;59.67;101498.88;5047957;28;20037;-69
2021/09/14 08:44:47;;;;;;;5.35;1.70;;;;;;;19.79;61.36;101506.41;5047795;28;20399;-69
2021/09/14 08:47:12;;;;;;;6.50;1.63;;;;;;;19.36;63.12;101503.97;5030396;28;20017;-69
2021/09/14 08:49:38;;;;;;;8.93;2.17;;;;;;;19.57;62.86;101499.41;5047205;28;20450;-69
2021/09/14 08:52:05;;;;;;;3.40;1.20;;;;;;;19.32;63.03;101515.38;5047698;28;20132;-69
2021/09/14 08:54:30;;;;;;;;;;;;;;;18.49;63.04;101517.97;5030230;28;20110;-69
2021/09/14 08:56:55;;;;;;;1.63;0.98;;;;;;;17.80;65.09;101521.25;5030070;28;19917;-69
2021/09/14 08:59:29;;;;;;;5.37;1.10;;;;;;;17.44;66.40;101520.22;5046989;28;20037;-68
2021/09/14 09:01:59;;;;;;;6.07;1.27;;;;;;;16.97;68.65;101529.53;5013778;28;20047;-68
2021/09/14 09:04:25;;;;;;;3.13;1.40;;;;;;;17.12;69.03;101532.25;5029736;28;20033;-69
2021/09/14 09:06:51;;;;;;;4.17;1.63;;;;;;;17.42;67.43;101540.31;5029938;28;20497;-68
2021/09/14 09:09:17;;;;;;;;;;;;;;;17.66;67.40;101539.16;5029787;28;20144;-69
2021/09/14 09:11:59;;;;;;;;;;;;;;;17.76;66.79;101533.47;5030343;28;20011;-69
2021/09/14 09:14:55;;;;;;;3.92;1.40;;;;;;;17.63;66.21;101531.44;5029649;28;19912;-69
2021/09/14 09:17:20;;;;;;;6.35;1.30;;;;;;;17.86;67.35;101537.56;5001083;28;20118;-68
2021/09/14 09:19:57;;;;;;;4.23;1.33;;;;;;;18.41;66.28;101542.44;5046930;28;20021;-69
2021/09/14 09:22:24;;;;;;;5.03;1.10;;;;;;;17.80;65.66;101532.06;5047278;28;20040;-69
2021/09/14 09:24:50;;;;;;;;;;;;;;;18.79;64.07;101525.91;5030214;28;20040;-68
2021/09/14 09:27:19;;;;;;;8.38;1.67;;;;;;;19.45;62.17;101523.53;5029508;28;19909;-69
2021/09/14 09:29:56;;;;;;;2.85;1.20;;;;;;;19.34;62.22;101521.44;5029489;28;20465;-69
2021/09/14 09:32:22;;;;;;;3.00;1.25;;;;;;;19.19;60.26;101524.28;5013166;28;20041;-69
2021/09/14 09:34:56;;;;;;;8.73;3.20;;;;;;;20.10;59.74;101517.72;5047044;28;20412;-69
2021/09/14 09:37:22;;;;;;;5.70;2.10;;;;;;;19.97;59.73;101521.22;5029822;28;20051;-68
2021/09/14 09:39:47;;;;;;;4.03;2.05;;;;;;;21.28;56.79;101515.06;5012606;28;20037;-69
2021/09/14 09:42:14;;;;;;;2.53;1.17;;;;;;;21.87;54.60;101511.25;5047430;28;20029;-69
2021/09/14 09:44:52;;;;;;;4.07;1.35;;;;;;;21.34;55.85;101514.22;5046749;28;20032;-69
2021/09/14 09:47:18;;;;;;;2.65;1.67;;;;;;;22.06;54.05;101509.44;5047370;28;20041;-69
2021/09/14 09:49:44;;;;;;;4.10;1.73;;;;;;;22.43;53.42;101514.19;5046667;28;20044;-69
2021/09/14 09:52:10;;;;;;;4.88;1.52;;;;;;;22.88;52.79;101505.81;5029322;28;20033;-69
2021/09/14 09:54:36;;;;;;;;;;;;;;;20.07;56.75;101508.13;5029730;28;20033;-69
2021/09/14 09:57:01;;;;;;;5.28;1.48;;;;;;;19.64;60.25;101513.81;5046841;28;19920;-69
2021/09/14 09:59:27;;;;;;;6.93;2.13;;;;;;;20.17;58.15;101513.97;5029414;28;20044;-69
2021/09/14 10:02:16;;;;;;;8.30;1.95;;;;;;;22.07;54.32;101510.28;5046805;28;20705;-69
2021/09/14 10:04:51;;;;;;;9.23;2.55;;;;;;;23.17;51.58;101496.91;5029163;28;20529;-69
2021/09/14 10:07:19;;;;;;;6.47;2.67;;;;;;;23.62;50.62;101497.59;5029251;28;20589;-69
2021/09/14 10:09:49;;;;;;;3.40;1.33;;;;;;;22.63;53.82;101501.25;5046718;28;20107;-72
2021/09/14 10:12:25;;;;;;;5.93;1.98;;;;;;;22.97;53.51;101499.03;5030461;28;20037;-73
2021/09/14 10:15:00;;;;;;;;;;;;;;;23.29;53.16;101502.41;5051130;28;20032;-73
2021/09/14 10:17:26;;;;;;;5.45;1.98;;;;;;;23.50;50.80;101509.28;5050341;28;19912;-73
2021/09/14 10:19:52;;;;;;;3.28;1.45;;;;;;;23.52;50.32;101504.44;5050407;28;20037;-73
2021/09/14 10:22:28;;;;;;;4.30;1.52;;;;;;;23.53;52.29;101506.09;5050593;28;20040;-73
2021/09/14 10:25:01;;;;;;;4.05;1.70;;;;;;;23.15;52.47;101504.47;5050500;28;20045;-73
2021/09/14 10:27:41;;;;;;;8.50;2.33;;;;;;;22.79;51.53;101505.28;5050558;28;20025;-73
2021/09/14 10:30:09;;;;;;;3.70;1.38;;;;;;;21.51;55.58;101509.16;5033650;28;20029;-73
2021/09/14 10:32:44;;;;;;;9.95;2.38;;;;;;;22.13;55.08;101510.22;5051312;28;20056;-73
2021/09/14 10:35:11;;;;;;;9.82;2.03;;;;;;;23.25;52.21;101511.28;5051286;28;20078;-73
2021/09/14 10:37:38;;;;;;;4.78;1.65;;;;;;;23.55;51.63;101504.00;5051203;28;20928;-73
2021/09/14 10:40:14;;;;;;;6.32;1.65;;;;;;;23.08;52.12;101501.00;5050842;28;20044;-73
2021/09/14 10:42:43;;;;;;;4.43;1.30;;;;;;;23.04;51.97;101496.22;5017144;28;20098;-73
2021/09/14 10:45:11;;;;;;;5.13;1.50;;;;;;;22.54;54.52;101499.88;5033724;28;20064;-73
2021/09/14 10:47:39;;;;;;;4.20;1.40;;;;;;;20.69;57.98;101497.91;5050990;28;20032;-73
2021/09/14 10:50:06;;;;;;;4.95;1.60;;;;;;;21.31;57.65;101492.09;5033387;28;20031;-73
2021/09/14 10:52:34;;;;;;;7.10;1.92;;;;;;;20.64;57.55;101484.13;5049891;28;20095;-73
2021/09/14 10:55:07;;;;;;;7.80;2.42;;;;;;;22.58;54.85;101482.03;5049852;28;20040;-73
2021/09/14 10:57:39;;;;;;;6.97;2.20;;;;;;;21.38;58.60;101485.56;5049775;28;20472;-73
2021/09/14 11:00:09;;;;;;;4.43;1.60;;;;;;;21.11;58.60;101486.72;5049662;28;20124;-73
2021/09/14 11:02:34;;;;;;;5.70;1.60;;;;;;;21.15;59.40;101482.53;5049798;28;20071;-73
2021/09/14 11:05:00;;;;;;;3.80;1.50;;;;;;;21.12;59.23;101493.81;5049738;28;20036;-73
2021/09/14 11:07:27;;;;;;;6.70;2.22;;;;;;;22.04;57.11;101491.69;5049464;28;20115;-73
2021/09/14 11:09:58;;;;;;;4.75;1.77;;;;;;;21.93;56.90;101490.50;5031613;28;20090;-73
2021/09/14 11:12:28;;;;;;;6.22;2.15;;;;;;;22.06;54.77;101484.97;5032141;28;20036;-73
2021/09/14 11:14:55;;;;;;;5.22;1.48;;;;;;;22.54;54.15;101483.53;5032040;28;20024;-73
2021/09/14 11:17:26;;;;;;;4.82;2.42;;;;;;;21.48;57.93;101487.84;5049546;28;20036;-73
2021/09/14 11:19:52;;;;;;;3.05;1.63;;;;;;;20.84;58.91;101495.78;5031855;28;20072;-73
2021/09/14 11:22:31;;;;;;;;;;;;;;;20.79;58.64;101492.03;5049979;28;20028;-73
2021/09/14 11:24:56;;;;;;;4.43;1.80;;;;;;;21.24;58.61;101492.13;5049531;28;19913;-73
2021/09/14 11:27:23;;;;;;;2.77;1.20;;;;;;;21.08;59.46;101493.44;5031920;28;20106;-73
2021/09/14 11:29:48;;;;;;;3.28;1.38;;;;;;;20.94;60.70;101495.34;5031606;28;20036;-73
2021/09/14 11:32:15;;;;;;;3.63;1.40;;;;;;;20.81;61.20;101492.66;5049460;28;20033;-73
2021/09/14 11:34:41;;;;;;;5.97;2.05;;;;;;;20.62;61.50;101494.38;5048100;28;20443;-73
2021/09/14 11:37:06;;;;;;;8.02;1.65;;;;;;;21.00;61.11;101494.50;5049284;28;20082;-73
2021/09/14 11:39:38;;;;;;;7.13;2.17;;;;;;;20.88;61.39;101482.63;5043510;28;20033;-73
2021/09/14 11:42:08;;;;;;;5.45;1.52;;;;;;;20.89;60.92;101489.72;5030579;28;20434;-73
2021/09/14 11:44:33;;;;;;;5.40;1.73;;;;;;;20.78;60.73;101482.22;5030246;28;20037;-73
2021/09/14 11:47:09;;;;;;;3.07;1.53;;;;;;;20.51;63.66;101492.25;5031308;28;20032;-73
2021/09/14 11:49:34;;;;;;;7.07;1.58;;;;;;;20.33;63.60;101479.34;5030728;28;20416;-73
2021/09/14 11:52:01;;;;;;;7.43;2.10;;;;;;;20.58;63.81;101482.25;5048585;28;20112;-73
2021/09/14 11:54:35;;;;;;;5.28;1.42;;;;;;;20.63;64.00;101479.78;5031360;28;20036;-73
2021/09/14 11:57:02;;;;;;;4.90;1.75;;;;;;;21.31;61.70;101476.63;5047880;28;20033;-73
2021/09/14 11:59:32;;;;;;;11.68;1.60;;;;;;;21.43;60.58;101469.50;5048720;28;20029;-73
2021/09/14 12:01:59;;;;;;;11.77;2.90;;;;;;;21.40;60.46;101467.22;5011724;28;20055;-73
2021/09/14 12:04:24;;;;;;;10.65;2.90;;;;;;;21.52;60.04;101461.06;5028796;28;20603;-73
2021/09/14 12:06:52;;;;;;;3.70;1.43;;;;;;;21.12;61.91;101464.81;5011538;28;20037;-73
2021/09/14 12:09:18;;;;;;;6.40;1.70;;;;;;;21.18;60.12;101455.78;5027038;28;20037;-73
2021/09/14 12:11:44;;;;;;;9.85;2.70;;;;;;;20.79;63.47;101459.47;5040144;28;20057;-73
2021/09/14 12:14:17;;;;;;;6.38;2.33;;;;;;;20.60;62.69;101453.91;5031048;28;20433;-73
2021/09/14 12:16:44;;;;;;;4.63;1.75;;;;;;;20.81;63.61;101463.66;5048538;28;20423;-73
2021/09/14 12:19:13;;;;;;;6.80;2.33;;;;;;;20.89;63.05;101457.16;5048138;28;20033;-73
2021/09/14 12:21:39;;;;;;;2.67;1.25;;;;;;;21.61;61.41;101454.31;5048612;28;20029;-73
2021/09/14 12:24:04;;;;;;;6.60;2.40;;;;;;;21.16;60.33;101452.44;5047439;28;20028;-73
2021/09/14 12:26:42;;;;;;;4.38;1.90;;;;;;;20.79;61.11;101445.91;5048355;28;20047;-73